Time;durP1;ratioP1;P1;durP2;ratioP2;P2;SDS_P1;SDS_P2;PMS_P1;PMS_P2;Temp;Humidity;BMP_temperature;BMP_pressure;BME280_temperature;BME280_humidity;BME280_pressure;Samples;Min_cycle;Max_cycle;Signal;HPM_P1;HPM_P2
2023/03/31 00:01:25;;;;;;;5.28;2.60;;;;;;;;;;5028045;28;20040;-47
2023/03/31 05:08:53;;;;;;;7.03;1.77;;;;;;;;;;5023735;28;20561;-45
2023/03/31 05:11:19;;;;;;;6.90;1.90;;;;;;;;;;5026535;28;20036;-48
2023/03/31 05:13:45;;;;;;;5.80;1.88;;;;;;;;;;5027822;28;20410;-46
2023/03/31 05:16:13;;;;;;;5.28;1.90;;;;;;;;;;5027180;28;20575;-46
2023/03/31 05:18:39;;;;;;;6.63;2.47;;;;;;;;;;5027313;28;20047;-46
2023/03/31 05:21:16;;;;;;;7.57;2.03;;;;;;;;;;5027886;28;20402;-48
2023/03/31 05:23:42;;;;;;;6.50;1.45;;;;;;;;;;5027482;28;20021;-47
2023/03/31 05:26:10;;;;;;;5.45;1.88;;;;;;;;;;5027587;28;20021;-45
2023/03/31 05:28:36;;;;;;;6.22;1.88;;;;;;;;;;5026912;28;20025;-46
2023/03/31 05:31:03;;;;;;;6.78;1.52;;;;;;;;;;5027674;28;20022;-49
2023/03/31 05:33:29;;;;;;;4.35;1.70;;;;;;;;;;5027291;28;20471;-45
2023/03/31 05:35:55;;;;;;;4.55;1.75;;;;;;;;;;5027154;28;20029;-47
2023/03/31 05:38:21;;;;;;;3.65;1.48;;;;;;;;;;5026758;28;20079;-46
2023/03/31 05:40:48;;;;;;;5.22;1.90;;;;;;;;;;5028532;28;20082;-48
2023/03/31 05:43:14;;;;;;;4.35;1.42;;;;;;;;;;5027829;28;20018;-46
2023/03/31 05:45:40;;;;;;;6.70;1.90;;;;;;;;;;5028123;28;20034;-47
2023/03/31 05:48:06;;;;;;;6.43;1.70;;;;;;;;;;5027968;28;20036;-49
2023/03/31 05:50:32;;;;;;;7.07;1.77;;;;;;;;;;5028628;28;20029;-49
2023/03/31 05:52:58;;;;;;;6.65;1.92;;;;;;;;;;5029277;28;20033;-47
2023/03/31 05:55:24;;;;;;;5.35;1.50;;;;;;;;;;5048761;28;20554;-50
2023/03/31 05:57:50;;;;;;;5.28;1.77;;;;;;;;;;5040034;28;20095;-46
2023/03/31 06:00:17;;;;;;;5.90;1.90;;;;;;;;;;5027409;28;20124;-47
2023/03/31 06:02:43;;;;;;;8.77;2.45;;;;;;;;;;5027701;28;20605;-49
2023/03/31 06:05:09;;;;;;;7.32;2.47;;;;;;;;;;5028303;28;20345;-47
2023/03/31 06:07:35;;;;;;;5.15;1.95;;;;;;;;;;5028091;28;20071;-48
2023/03/31 06:10:02;;;;;;;6.07;1.80;;;;;;;;;;5028157;28;20068;-47
2023/03/31 06:12:28;;;;;;;5.43;2.03;;;;;;;;;;5009309;28;20060;-46
2023/03/31 06:14:54;;;;;;;7.18;1.92;;;;;;;;;;5027668;28;20040;-46
2023/03/31 06:17:20;;;;;;;5.85;1.90;;;;;;;;;;5027905;28;20026;-50
2023/03/31 06:19:46;;;;;;;7.75;2.33;;;;;;;;;;5010224;28;20033;-47
2023/03/31 06:22:12;;;;;;;6.40;1.67;;;;;;;;;;5028194;28;20562;-47
2023/03/31 06:24:38;;;;;;;6.78;1.90;;;;;;;;;;5027461;28;20041;-50
2023/03/31 06:27:05;;;;;;;8.82;2.20;;;;;;;;;;5027596;28;20026;-47
2023/03/31 06:29:31;;;;;;;7.35;2.00;;;;;;;;;;5030141;28;20052;-49
2023/03/31 06:31:58;;;;;;;3.97;2.08;;;;;;;;;;5031781;28;20026;-48
2023/03/31 06:34:24;;;;;;;7.47;2.55;;;;;;;;;;5032772;28;20029;-47
2023/03/31 06:36:50;;;;;;;5.57;1.58;;;;;;;;;;5031407;28;20025;-48
2023/03/31 06:39:16;;;;;;;6.30;1.75;;;;;;;;;;5031860;28;20784;-46
2023/03/31 06:41:42;;;;;;;10.45;2.45;;;;;;;;;;5032308;28;20076;-49
2023/03/31 06:44:08;;;;;;;7.00;2.15;;;;;;;;;;5030813;28;20026;-47
2023/03/31 06:46:35;;;;;;;6.75;1.95;;;;;;;;;;5030414;28;20017;-46
2023/03/31 06:49:01;;;;;;;7.18;1.92;;;;;;;;;;5030755;28;20459;-47
2023/03/31 06:51:27;;;;;;;8.85;2.60;;;;;;;;;;5029879;28;20551;-45
2023/03/31 06:53:53;;;;;;;6.90;2.10;;;;;;;;;;5030745;28;20535;-48
2023/03/31 06:56:19;;;;;;;6.22;2.22;;;;;;;;;;5029505;28;20029;-46
2023/03/31 06:58:45;;;;;;;9.23;2.35;;;;;;;;;;5028241;28;20464;-45
2023/03/31 07:01:11;;;;;;;7.30;2.08;;;;;;;;;;5029471;28;20408;-47
2023/03/31 07:03:37;;;;;;;6.40;2.08;;;;;;;;;;5029191;28;20104;-46
2023/03/31 07:06:03;;;;;;;9.65;2.50;;;;;;;;;;5030248;28;20091;-46
2023/03/31 07:08:29;;;;;;;7.35;2.58;;;;;;;;;;5030091;28;20210;-47
2023/03/31 07:10:57;;;;;;;8.98;2.20;;;;;;;;;;5028647;28;20037;-48
2023/03/31 07:13:24;;;;;;;10.23;3.20;;;;;;;;;;5028626;28;20025;-45
2023/03/31 07:15:50;;;;;;;7.53;2.28;;;;;;;;;;5025183;28;20485;-50
2023/03/31 07:18:17;;;;;;;6.00;2.05;;;;;;;;;;5028100;28;20053;-49
2023/03/31 07:20:48;;;;;;;3.97;2.25;;;;;;;;;;5028133;28;20449;-47
2023/03/31 07:23:14;;;;;;;9.10;2.60;;;;;;;;;;5028114;28;20045;-45
2023/03/31 07:25:40;;;;;;;5.75;2.13;;;;;;;;;;5027605;28;20082;-45
2023/03/31 07:28:06;;;;;;;11.48;2.40;;;;;;;;;;5025319;28;20605;-46
2023/03/31 07:30:32;;;;;;;7.85;2.22;;;;;;;;;;5027794;28;20037;-47
2023/03/31 07:32:58;;;;;;;7.32;2.10;;;;;;;;;;5027526;28;20063;-47
2023/03/31 07:35:24;;;;;;;6.22;2.20;;;;;;;;;;5027668;28;20562;-47
2023/03/31 07:37:51;;;;;;;7.03;2.17;;;;;;;;;;5027300;28;20017;-47
2023/03/31 07:40:27;;;;;;;8.85;2.50;;;;;;;;;;5026166;28;20033;-48
2023/03/31 07:42:54;;;;;;;9.38;2.40;;;;;;;;;;5015382;28;20477;-46
2023/03/31 07:45:21;;;;;;;7.40;2.65;;;;;;;;;;5019130;28;20156;-46
2023/03/31 07:47:48;;;;;;;7.95;2.33;;;;;;;;;;5027191;28;20053;-47
2023/03/31 07:50:15;;;;;;;8.52;2.55;;;;;;;;;;5027195;28;20025;-47
2023/03/31 07:52:42;;;;;;;5.70;2.55;;;;;;;;;;5026276;28;20762;-46
2023/03/31 07:55:09;;;;;;;6.25;2.42;;;;;;;;;;5027946;28;20071;-45
2023/03/31 07:57:35;;;;;;;8.98;2.42;;;;;;;;;;5027145;28;20029;-45
2023/03/31 08:00:06;;;;;;;10.02;2.33;;;;;;;;;;5027191;28;20029;-49
2023/03/31 08:02:32;;;;;;;6.47;2.45;;;;;;;;;;5008584;28;20037;-50
2023/03/31 08:04:58;;;;;;;7.85;3.20;;;;;;;;;;5027157;28;20026;-50
2023/03/31 08:07:25;;;;;;;7.30;2.92;;;;;;;;;;5027796;28;20029;-49
2023/03/31 08:09:51;;;;;;;9.60;3.35;;;;;;;;;;5027169;28;20032;-50
2023/03/31 08:12:17;;;;;;;6.20;3.08;;;;;;;;;;5026926;28;20122;-47
2023/03/31 08:14:43;;;;;;;7.20;3.10;;;;;;;;;;5026817;28;20148;-46
2023/03/31 08:17:09;;;;;;;9.00;3.05;;;;;;;;;;5026654;28;20026;-49
2023/03/31 08:19:35;;;;;;;8.27;3.20;;;;;;;;;;5027266;28;20439;-49
2023/03/31 08:22:02;;;;;;;10.93;3.63;;;;;;;;;;5026653;28;20034;-50
2023/03/31 08:24:28;;;;;;;7.20;3.47;;;;;;;;;;5027030;28;20025;-47
2023/03/31 08:26:56;;;;;;;5.85;3.00;;;;;;;;;;5009498;28;20048;-47
2023/03/31 08:29:23;;;;;;;6.93;3.40;;;;;;;;;;5026680;28;20053;-49
2023/03/31 08:31:49;;;;;;;9.05;4.03;;;;;;;;;;5026792;28;20022;-47
2023/03/31 08:34:15;;;;;;;10.30;3.67;;;;;;;;;;5026073;28;20025;-47
2023/03/31 08:36:41;;;;;;;9.25;3.63;;;;;;;;;;5026291;28;20515;-46
2023/03/31 08:39:08;;;;;;;10.00;3.03;;;;;;;;;;5025930;28;20036;-46
2023/03/31 08:41:34;;;;;;;7.68;3.70;;;;;;;;;;5026195;28;20044;-47
2023/03/31 08:44:02;;;;;;;5.22;3.55;;;;;;;;;;5026322;28;20051;-46
2023/03/31 08:46:30;;;;;;;8.88;3.78;;;;;;;;;;5014036;28;20484;-47
2023/03/31 08:48:57;;;;;;;9.55;3.40;;;;;;;;;;5023908;28;20021;-46
2023/03/31 08:51:29;;;;;;;9.32;3.15;;;;;;;;;;5026853;28;20398;-48
2023/03/31 08:53:55;;;;;;;9.60;4.05;;;;;;;;;;5010002;28;20033;-46
2023/03/31 08:56:21;;;;;;;;;;;;;;;;;;5028567;28;20033;-47
2023/03/31 08:58:47;;;;;;;;;;;;;;;;;;5026945;28;19920;-50
2023/03/31 09:01:13;;;;;;;;;;;;;;;;;;5022218;28;19921;-46
2023/03/31 09:03:39;;;;;;;;;;;;;;;;;;5022560;28;20415;-46
2023/03/31 09:06:05;;;;;;;;;;;;;;;;;;5028195;28;19905;-49
2023/03/31 09:08:32;;;;;;;;;;;;;;;;;;5024320;28;19996;-49
2023/03/31 09:10:58;;;;;;;;;;;;;;;;;;5028315;28;19935;-46
2023/03/31 09:13:25;;;;;;;;;;;;;;;;;;5025471;28;20407;-47
2023/03/31 09:15:51;;;;;;;;;;;;;;;;;;5025958;28;19924;-50
2023/03/31 09:18:17;;;;;;;;;;;;;;;;;;5039358;28;20327;-46
2023/03/31 09:20:43;;;;;;;;;;;;;;;;;;5028256;28;19909;-49
2023/03/31 09:23:09;;;;;;;;;;;;;;;;;;5046885;28;20444;-46
2023/03/31 09:25:35;;;;;;;;;;;;;;;;;;5039714;28;20314;-47
2023/03/31 09:28:02;;;;;;;;;;;;;;;;;;5026302;28;20012;-49
2023/03/31 09:30:28;;;;;;;;;;;;;;;;;;5025823;28;19916;-47
2023/03/31 09:32:54;;;;;;;;;;;;;;;;;;5026696;28;19909;-47
2023/03/31 09:35:20;;;;;;;;;;;;;;;;;;5026208;28;19909;-45
2023/03/31 09:37:46;;;;;;;;;;;;;;;;;;5026405;28;19905;-46
2023/03/31 09:40:12;;;;;;;;;;;;;;;;;;5026035;28;20563;-46
2023/03/31 09:42:38;;;;;;;;;;;;;;;;;;5026791;28;20395;-47
2023/03/31 09:45:04;;;;;;;;;;;;;;;;;;5026281;28;19951;-47
2023/03/31 09:47:30;;;;;;;;;;;;;;;;;;5026064;28;20252;-48
2023/03/31 09:49:57;;;;;;;;;;;;;;;;;;5041191;28;19975;-47
2023/03/31 09:52:23;;;;;;;;;;;;;;;;;;5025796;28;19912;-46
2023/03/31 09:54:50;;;;;;;;;;;;;;;;;;5025853;28;20446;-46
2023/03/31 09:57:17;;;;;;;;;;;;;;;;;;5026177;28;19960;-47
2023/03/31 09:59:45;;;;;;;;;;;;;;;;;;5025395;28;19909;-46
2023/03/31 10:02:12;;;;;;;;;;;;;;;;;;5025414;28;20011;-48
2023/03/31 10:04:38;;;;;;;;;;;;;;;;;;5026341;28;19909;-47
2023/03/31 10:07:03;;;;;;;;;;;;;;;;;;5025931;28;19919;-45
2023/03/31 10:09:29;;;;;;;;;;;;;;;;;;5025316;28;20388;-46
2023/03/31 10:11:56;;;;;;;;;;;;;;;;;;5025396;28;19994;-50
2023/03/31 10:14:22;;;;;;;;;;;;;;;;;;5025899;28;19913;-47
2023/03/31 10:16:48;;;;;;;;;;;;;;;;;;5025486;28;19909;-51
2023/03/31 10:19:14;;;;;;;;;;;;;;;;;;5025694;28;20395;-47
2023/03/31 10:21:40;;;;;;;;;;;;;;;;;;5025754;28;19909;-46
2023/03/31 10:24:06;;;;;;;;;;;;;;;;;;5026056;28;19905;-47
2023/03/31 10:26:31;;;;;;;;;;;;;;;;;;5025538;28;20197;-46
2023/03/31 10:28:57;;;;;;;;;;;;;;;;;;5025172;28;19919;-46
2023/03/31 10:31:23;;;;;;;;;;;;;;;;;;5025473;28;19909;-47
2023/03/31 10:33:49;;;;;;;;;;;;;;;;;;5025384;28;19905;-46
2023/03/31 10:36:15;;;;;;;;;;;;;;;;;;5025634;28;20008;-46
2023/03/31 10:38:41;;;;;;;;;;;;;;;;;;5025381;28;19912;-46
2023/03/31 10:41:07;;;;;;;;;;;;;;;;;;5025945;28;19955;-47
2023/03/31 10:43:33;;;;;;;;;;;;;;;;;;5007201;28;19909;-46
2023/03/31 10:45:59;;;;;;;;;;;;;;;;;;5025341;28;19987;-47
2023/03/31 10:48:26;;;;;;;;;;;;;;;;;;5025116;28;19911;-48
2023/03/31 10:50:52;;;;;;;;;;;;;;;;;;5040447;28;19909;-45
2023/03/31 10:53:18;;;;;;;;;;;;;;;;;;5025188;28;20464;-47
2023/03/31 10:55:44;;;;;;;;;;;;;;;;;;5025142;28;19995;-48
2023/03/31 10:58:10;;;;;;;;;;;;;;;;;;5025025;28;19909;-48
2023/03/31 11:00:37;;;;;;;;;;;;;;;;;;5025673;28;20335;-48
2023/03/31 11:03:03;;;;;;;;;;;;;;;;;;5024711;28;20281;-45
2023/03/31 11:05:29;;;;;;;;;;;;;;;;;;5025185;28;19928;-46
2023/03/31 11:07:56;;;;;;;;;;;;;;;;;;5025140;28;19988;-46
2023/03/31 11:10:23;;;;;;;;;;;;;;;;;;5025469;28;19909;-49
2023/03/31 11:12:50;;;;;;;;;;;;;;;;;;5024403;28;20384;-50
2023/03/31 11:15:16;;;;;;;;;;;;;;;;;;5027027;28;20142;-47
2023/03/31 11:17:42;;;;;;;;;;;;;;;;;;5028493;28;20006;-47
2023/03/31 11:20:09;;;;;;;;;;;;;;;;;;5028370;28;19917;-48
2023/03/31 11:22:35;;;;;;;;;;;;;;;;;;5029149;28;19916;-48
2023/03/31 11:25:02;;;;;;;;;;;;;;;;;;5029269;28;19905;-48
2023/03/31 11:27:28;;;;;;;;;;;;;;;;;;5028467;28;20195;-46
2023/03/31 11:29:54;;;;;;;;;;;;;;;;;;5028696;28;20012;-45
2023/03/31 11:32:20;;;;;;;;;;;;;;;;;;5028523;28;19912;-47
2023/03/31 11:34:46;;;;;;;;;;;;;;;;;;5028411;28;19905;-48
2023/03/31 11:37:14;;;;;;;;;;;;;;;;;;5028251;28;19956;-46
2023/03/31 11:39:40;;;;;;;;;;;;;;;;;;5028379;28;20225;-47
2023/03/31 11:42:07;;;;;;;;;;;;;;;;;;5027801;28;19955;-45
2023/03/31 11:44:33;;;;;;;;;;;;;;;;;;5029002;28;19909;-48
2023/03/31 11:47:00;;;;;;;;;;;;;;;;;;5043367;28;19913;-47
2023/03/31 11:49:25;;;;;;;;;;;;;;;;;;5027826;28;20403;-47
2023/03/31 11:51:51;;;;;;;;;;;;;;;;;;5028100;28;19909;-48
2023/03/31 11:54:17;;;;;;;;;;;;;;;;;;5028952;28;19955;-45
2023/03/31 11:56:43;;;;;;;;;;;;;;;;;;5029364;28;19939;-47
2023/03/31 11:59:11;;;;;;;;;;;;;;;;;;5029542;28;19909;-48
2023/03/31 12:01:37;;;;;;;;;;;;;;;;;;5028671;28;19913;-47
2023/03/31 12:04:03;;;;;;;;;;;;;;;;;;5029850;28;19920;-46
2023/03/31 12:06:29;;;;;;;;;;;;;;;;;;5028866;28;19920;-50
2023/03/31 12:08:55;;;;;;;;;;;;;;;;;;5029232;28;20287;-46
2023/03/31 12:11:21;;;;;;;;;;;;;;;;;;5028759;28;19912;-46
2023/03/31 12:13:47;;;;;;;;;;;;;;;;;;5029044;28;19905;-50
2023/03/31 12:16:13;;;;;;;;;;;;;;;;;;5029040;28;20368;-47
2023/03/31 12:18:39;;;;;;;;;;;;;;;;;;5029228;28;20118;-49
2023/03/31 12:21:05;;;;;;;;;;;;;;;;;;5029785;28;19909;-46
2023/03/31 12:23:32;;;;;;;;;;;;;;;;;;5028737;28;20035;-47
2023/03/31 12:25:58;;;;;;;;;;;;;;;;;;5024603;28;19966;-48
2023/03/31 12:28:26;;;;;;;;;;;;;;;;;;5022200;28;19917;-45
2023/03/31 12:30:52;;;;;;;;;;;;;;;;;;5023507;28;19963;-46
2023/03/31 12:33:18;;;;;;;;;;;;;;;;;;5025564;28;19912;-45
2023/03/31 12:35:44;;;;;;;;;;;;;;;;;;5023254;28;20015;-45
2023/03/31 12:38:10;;;;;;;;;;;;;;;;;;5020491;28;20028;-47
2023/03/31 12:40:36;;;;;;;;;;;;;;;;;;5026004;28;20347;-46
2023/03/31 12:43:02;;;;;;;;;;;;;;;;;;5026898;28;20343;-47
2023/03/31 12:45:28;;;;;;;;;;;;;;;;;;5024880;28;20003;-48
2023/03/31 12:47:54;;;;;;;;;;;;;;;;;;5033743;28;20367;-46
2023/03/31 12:50:21;;;;;;;;;;;;;;;;;;5024632;28;19913;-47
2023/03/31 12:52:47;;;;;;;;;;;;;;;;;;5035460;28;20443;-46
2023/03/31 12:55:14;;;;;;;;;;;;;;;;;;5024613;28;20329;-47
2023/03/31 12:57:41;;;;;;;;;;;;;;;;;;5036626;28;20388;-48
2023/03/31 13:00:11;;;;;;;;;;;;;;;;;;5022719;28;19909;-48
2023/03/31 13:02:37;;;;;;;;;;;;;;;;;;5034683;28;20419;-48
2023/03/31 13:05:03;;;;;;;;;;;;;;;;;;5026122;28;20004;-47
2023/03/31 13:07:29;;;;;;;;;;;;;;;;;;5025650;28;19917;-48
2023/03/31 13:09:55;;;;;;;;;;;;;;;;;;5026889;28;19917;-46
2023/03/31 13:12:21;;;;;;;;;;;;;;;;;;5026027;28;20284;-46
2023/03/31 13:14:47;;;;;;;;;;;;;;;;;;5028367;28;19909;-48
2023/03/31 13:17:13;;;;;;;;;;;;;;;;;;5031007;28;19920;-48
2023/03/31 13:19:39;;;;;;;;;;;;;;;;;;5027888;28;19909;-46
2023/03/31 13:22:06;;;;;;;;;;;;;;;;;;5028343;28;19925;-46
2023/03/31 13:24:32;;;;;;;;;;;;;;;;;;5026834;28;19904;-47
2023/03/31 13:26:58;;;;;;;;;;;;;;;;;;5026438;28;19905;-46
2023/03/31 13:29:24;;;;;;;;;;;;;;;;;;5026417;28;19909;-46
2023/03/31 13:31:50;;;;;;;;;;;;;;;;;;5026234;28;19905;-47
2023/03/31 13:34:16;;;;;;;;;;;;;;;;;;5026294;28;20375;-46
2023/03/31 13:36:42;;;;;;;;;;;;;;;;;;5025996;28;19912;-47
2023/03/31 13:39:08;;;;;;;;;;;;;;;;;;5025901;28;20292;-47
2023/03/31 13:41:34;;;;;;;;;;;;;;;;;;5026549;28;19909;-47
2023/03/31 13:44:00;;;;;;;;;;;;;;;;;;5026137;28;19909;-46
2023/03/31 13:46:26;;;;;;;;;;;;;;;;;;5026236;28;20008;-45
2023/03/31 13:48:51;;;;;;;;;;;;;;;;;;5026142;28;19959;-48
2023/03/31 13:51:17;;;;;;;;;;;;;;;;;;5025924;28;19916;-47
2023/03/31 13:53:43;;;;;;;;;;;;;;;;;;5025965;28;19959;-49
2023/03/31 13:56:09;;;;;;;;;;;;;;;;;;5025972;28;19909;-47
2023/03/31 13:58:35;;;;;;;;;;;;;;;;;;5026561;28;19915;-47
2023/03/31 14:01:01;;;;;;;;;;;;;;;;;;5025838;28;19905;-47
2023/03/31 14:03:27;;;;;;;;;;;;;;;;;;5025917;28;19909;-46
2023/03/31 14:05:53;;;;;;;;;;;;;;;;;;5025730;28;19912;-45
2023/03/31 14:08:19;;;;;;;;;;;;;;;;;;5026014;28;20381;-48
2023/03/31 14:10:45;;;;;;;;;;;;;;;;;;5025625;28;19909;-46
2023/03/31 14:13:11;;;;;;;;;;;;;;;;;;5025864;28;19905;-47
2023/03/31 14:15:37;;;;;;;;;;;;;;;;;;5026301;28;19911;-46
2023/03/31 14:18:03;;;;;;;;;;;;;;;;;;5026358;28;20372;-47
2023/03/31 14:20:28;;;;;;;;;;;;;;;;;;5025321;28;19905;-45
2023/03/31 14:22:54;;;;;;;;;;;;;;;;;;5025595;28;20007;-50
2023/03/31 14:25:20;;;;;;;;;;;;;;;;;;5025500;28;20389;-48
2023/03/31 14:27:46;;;;;;;;;;;;;;;;;;5025685;28;19944;-46
2023/03/31 14:30:12;;;;;;;;;;;;;;;;;;5025339;28;19913;-48
2023/03/31 14:32:39;;;;;;;;;;;;;;;;;;5040806;28;19936;-46
2023/03/31 14:35:05;;;;;;;;;;;;;;;;;;5025990;28;19909;-46
2023/03/31 14:37:31;;;;;;;;;;;;;;;;;;5025623;28;19912;-48
2023/03/31 14:39:57;;;;;;;;;;;;;;;;;;5025113;28;20445;-46
2023/03/31 14:42:24;;;;;;;;;;;;;;;;;;5025438;28;19984;-47
2023/03/31 14:44:50;;;;;;;;;;;;;;;;;;5025458;28;19936;-46
2023/03/31 14:47:16;;;;;;;;;;;;;;;;;;5025668;28;19909;-48
2023/03/31 14:49:42;;;;;;;;;;;;;;;;;;5025916;28;19916;-47
2023/03/31 14:52:08;;;;;;;;;;;;;;;;;;5029183;28;19909;-47
2023/03/31 14:54:37;;;;;;;;;;;;;;;;;;5029745;28;20007;-46
2023/03/31 14:57:03;;;;;;;;;;;;;;;;;;5029597;28;19967;-48
2023/03/31 14:59:29;;;;;;;;;;;;;;;;;;5028972;28;19948;-47
2023/03/31 15:01:55;;;;;;;;;;;;;;;;;;5029149;28;20002;-49
2023/03/31 15:04:20;;;;;;;;;;;;;;;;;;5028639;28;19916;-48
2023/03/31 15:06:47;;;;;;;;;;;;;;;;;;5044777;28;20004;-48
2023/03/31 15:09:13;;;;;;;;;;;;;;;;;;5028771;28;19905;-45
2023/03/31 15:11:39;;;;;;;;;;;;;;;;;;5028605;28;19920;-45
2023/03/31 15:14:06;;;;;;;;;;;;;;;;;;5029237;28;20435;-46
2023/03/31 15:16:33;;;;;;;;;;;;;;;;;;5028708;28;19932;-46
2023/03/31 15:18:59;;;;;;;;;;;;;;;;;;5033397;28;19912;-46
2023/03/31 15:21:25;;;;;;;;;;;;;;;;;;5048682;28;20092;-47
2023/03/31 15:23:52;;;;;;;;;;;;;;;;;;5048338;28;20398;-50
2023/03/31 15:26:19;;;;;;;;;;;;;;;;;;5047877;28;20452;-48
2023/03/31 15:28:46;;;;;;;;;;;;;;;;;;5048550;28;19904;-46
2023/03/31 15:31:11;;;;;;;;;;;;;;;;;;5048503;28;19912;-46
2023/03/31 15:33:40;;;;;;;;;;;;;;;;;;5049005;28;19904;-47
2023/03/31 15:36:06;;;;;;;;;;;;;;;;;;5031176;28;19909;-46
2023/03/31 15:38:33;;;;;;;;;;;;;;;;;;5048167;28;20059;-47
2023/03/31 15:41:00;;;;;;;;;;;;;;;;;;5048260;28;20422;-47
2023/03/31 15:43:25;;;;;;;;;;;;;;;;;;5048313;28;19942;-47
2023/03/31 15:45:51;;;;;;;;;;;;;;;;;;5048237;28;19905;-46
2023/03/31 15:48:18;;;;;;;;;;;;;;;;;;5048320;28;20273;-46
2023/03/31 15:50:44;;;;;;;;;;;;;;;;;;5048281;28;19991;-49
2023/03/31 15:53:11;;;;;;;;;;;;;;;;;;5048384;28;20551;-46
2023/03/31 15:55:37;;;;;;;;;;;;;;;;;;5048990;28;19905;-46
2023/03/31 15:58:03;;;;;;;;;;;;;;;;;;5048972;28;19912;-48
2023/03/31 16:00:29;;;;;;;;;;;;;;;;;;5047067;28;20391;-46
2023/03/31 16:02:56;;;;;;;;;;;;;;;;;;5029743;28;20307;-46
2023/03/31 16:05:22;;;;;;;;;;;;;;;;;;5047854;28;19908;-46
2023/03/31 16:07:48;;;;;;;;;;;;;;;;;;5048000;28;19916;-46
2023/03/31 16:10:14;;;;;;;;;;;;;;;;;;5047668;28;19905;-47
2023/03/31 16:12:41;;;;;;;;;;;;;;;;;;5048031;28;19930;-49
2023/03/31 16:15:07;;;;;;;;;;;;;;;;;;5047971;28;19911;-47
2023/03/31 16:17:33;;;;;;;;;;;;;;;;;;5048241;28;20132;-47
2023/03/31 16:19:59;;;;;;;;;;;;;;;;;;5047680;28;19904;-47
2023/03/31 16:22:26;;;;;;;;;;;;;;;;;;5047735;28;19913;-47
2023/03/31 16:24:52;;;;;;;;;;;;;;;;;;5047671;28;19908;-48
2023/03/31 16:27:18;;;;;;;;;;;;;;;;;;5047370;28;19959;-48
2023/03/31 16:29:46;;;;;;;;;;;;;;;;;;5047192;28;19948;-45
2023/03/31 16:32:12;;;;;;;;;;;;;;;;;;5047445;28;20348;-48
2023/03/31 16:34:38;;;;;;;;;;;;;;;;;;5047732;28;19944;-46
2023/03/31 16:37:10;;;;;;;;;;;;;;;;;;5048198;28;19905;-47
2023/03/31 16:39:36;;;;;;;;;;;;;;;;;;5032764;28;19920;-46
2023/03/31 16:42:02;;;;;;;;;;;;;;;;;;5024708;28;19921;-46
2023/03/31 16:44:28;;;;;;;;;;;;;;;;;;5027996;28;20001;-49
2023/03/31 16:46:53;;;;;;;;;;;;;;;;;;5026689;28;19909;-45
2023/03/31 16:49:19;;;;;;;;;;;;;;;;;;5027021;28;19905;-46
2023/03/31 16:51:45;;;;;;;;;;;;;;;;;;5026752;28;19988;-48
2023/03/31 16:54:11;;;;;;;;;;;;;;;;;;5027033;28;19916;-49
2023/03/31 16:56:37;;;;;;;;;;;;;;;;;;5027435;28;19905;-46
2023/03/31 16:59:03;;;;;;;;;;;;;;;;;;5026364;28;19934;-46
2023/03/31 17:01:29;;;;;;;;;;;;;;;;;;5026963;28;20023;-45
2023/03/31 17:03:55;;;;;;;;;;;;;;;;;;5027019;28;19912;-47
2023/03/31 17:06:21;;;;;;;;;;;;;;;;;;5026766;28;20388;-46
2023/03/31 17:08:47;;;;;;;;;;;;;;;;;;5026021;28;19913;-46
2023/03/31 17:11:13;;;;;;;;;;;;;;;;;;5019963;28;19913;-49
2023/03/31 17:13:40;;;;;;;;;;;;;;;;;;5006572;28;19941;-49
2023/03/31 17:16:06;;;;;;;;;;;;;;;;;;5008617;28;19928;-49
2023/03/31 17:18:32;;;;;;;;;;;;;;;;;;5007986;28;19920;-48
2023/03/31 17:20:58;;;;;;;;;;;;;;;;;;5007567;28;19913;-49
2023/03/31 17:23:25;;;;;;;;;;;;;;;;;;5006793;28;19967;-49
2023/03/31 17:25:51;;;;;;;;;;;;;;;;;;5007048;28;19910;-46
2023/03/31 17:28:17;;;;;;;;;;;;;;;;;;5007523;28;19909;-46
2023/03/31 17:30:46;;;;;;;;;;;;;;;;;;5007172;28;19913;-46
2023/03/31 17:33:12;;;;;;;;;;;;;;;;;;5007750;28;19986;-49
2023/03/31 17:35:38;;;;;;;;;;;;;;;;;;5007495;28;19972;-45
2023/03/31 17:38:04;;;;;;;;;;;;;;;;;;5008418;28;19932;-46
2023/03/31 17:40:33;;;;;;;;;;;;;;;;;;5007543;28;20003;-46
2023/03/31 17:43:00;;;;;;;;;;;;;;;;;;5007648;28;19968;-46
2023/03/31 17:45:26;;;;;;;;;;;;;;;;;;5008006;28;19916;-46
2023/03/31 17:47:52;;;;;;;;;;;;;;;;;;5007940;28;19940;-48
2023/03/31 17:50:18;;;;;;;;;;;;;;;;;;5007097;28;20285;-46
2023/03/31 17:52:44;;;;;;;;;;;;;;;;;;5007085;28;19910;-46
2023/03/31 17:55:10;;;;;;;;;;;;;;;;;;5007008;28;19909;-45
2023/03/31 17:57:39;;;;;;;;;;;;;;;;;;5013129;28;19958;-47
2023/03/31 18:00:07;;;;;;;;;;;;;;;;;;5007307;28;19940;-49
2023/03/31 18:02:33;;;;;;;;;;;;;;;;;;5005602;28;19960;-46
2023/03/31 18:04:59;;;;;;;;;;;;;;;;;;5001019;28;20330;-49
2023/03/31 18:07:26;;;;;;;;;;;;;;;;;;5004980;28;19944;-50
2023/03/31 18:09:52;;;;;;;;;;;;;;;;;;4987325;28;20372;-48
2023/03/31 18:12:19;;;;;;;;;;;;;;;;;;5020843;28;20040;-47
2023/03/31 18:14:45;;;;;;;;;;;;;;;;;;5024397;28;19991;-49
2023/03/31 18:17:13;;;;;;;;;;;;;;;;;;5023801;28;19988;-49
2023/03/31 18:19:40;;;;;;;;;;;;;;;;;;5023950;28;19991;-50
2023/03/31 18:22:06;;;;;;;;;;;;;;;;;;5025366;28;19913;-47
2023/03/31 18:24:33;;;;;;;;;;;;;;;;;;5028278;28;20706;-47
2023/03/31 18:26:59;;;;;;;;;;;;;;;;;;5031004;28;19912;-48
2023/03/31 18:29:25;;;;;;;;;;;;;;;;;;5030555;28;19971;-51
2023/03/31 18:31:51;;;;;;;;;;;;;;;;;;5013116;28;19909;-48
2023/03/31 18:34:17;;;;;;;;;;;;;;;;;;5030621;28;20011;-49
2023/03/31 18:36:45;;;;;;;;;;;;;;;;;;5030885;28;20004;-47
2023/03/31 18:39:11;;;;;;;;;;;;;;;;;;5027748;28;19916;-47
2023/03/31 18:41:37;;;;;;;;;;;;;;;;;;5031822;28;19924;-48
2023/03/31 18:44:04;;;;;;;;;;;;;;;;;;5013166;28;19917;-46
2023/03/31 18:46:30;;;;;;;;;;;;;;;;;;5009721;28;19909;-46
2023/03/31 18:48:56;;;;;;;;;;;;;;;;;;5030389;28;19916;-47
2023/03/31 18:51:22;;;;;;;;;;;;;;;;;;5030209;28;20396;-49
2023/03/31 18:53:47;;;;;;;;;;;;;;;;;;5030319;28;19948;-48
2023/03/31 18:56:13;;;;;;;;;;;;;;;;;;5023500;28;20307;-47
2023/03/31 18:58:39;;;;;;;;;;;;;;;;;;5022871;28;19913;-48
2023/03/31 19:01:05;;;;;;;;;;;;;;;;;;5028178;28;19924;-49
2023/03/31 19:03:31;;;;;;;;;;;;;;;;;;5025529;28;20304;-48
2023/03/31 19:05:58;;;;;;;;;;;;;;;;;;5029853;28;19939;-47
2023/03/31 19:08:24;;;;;;;;;;;;;;;;;;5030661;28;19912;-47
2023/03/31 19:10:51;;;;;;;;;;;;;;;;;;5029396;28;19909;-47
2023/03/31 19:13:17;;;;;;;;;;;;;;;;;;5030471;28;19916;-47
2023/03/31 19:15:43;;;;;;;;;;;;;;;;;;5030197;28;19912;-47
2023/03/31 19:18:09;;;;;;;;;;;;;;;;;;5019071;28;19923;-48
2023/03/31 19:20:36;;;;;;;;;;;;;;;;;;5030864;28;19913;-48
2023/03/31 19:23:02;;;;;;;;;;;;;;;;;;5012262;28;19917;-47
2023/03/31 19:25:27;;;;;;;;;;;;;;;;;;5028855;28;20327;-49
2023/03/31 19:27:54;;;;;;;;;;;;;;;;;;5029806;28;19909;-48
2023/03/31 19:30:21;;;;;;;;;;;;;;;;;;5029097;28;19940;-48
2023/03/31 19:32:48;;;;;;;;;;;;;;;;;;5029599;28;20419;-48
2023/03/31 19:35:14;;;;;;;;;;;;;;;;;;5028299;28;19909;-48
2023/03/31 19:37:41;;;;;;;;;;;;;;;;;;5008881;28;20292;-49
2023/03/31 19:40:07;;;;;;;;;;;;;;;;;;5043226;28;20031;-48
2023/03/31 19:42:34;;;;;;;;;;;;;;;;;;5026859;28;19979;-47
2023/03/31 19:45:00;;;;;;;;;;;;;;;;;;5026845;28;19913;-47
2023/03/31 19:47:26;;;;;;;;;;;;;;;;;;5026785;28;19943;-48
2023/03/31 19:49:52;;;;;;;;;;;;;;;;;;5041525;28;19913;-46
2023/03/31 19:52:19;;;;;;;;;;;;;;;;;;5026300;28;20526;-47
2023/03/31 19:54:45;;;;;;;;;;;;;;;;;;5027073;28;19913;-48
2023/03/31 19:57:10;;;;;;;;;;;;;;;;;;5026559;28;19985;-47
2023/03/31 19:59:36;;;;;;;;;;;;;;;;;;5026168;28;19917;-47
2023/03/31 20:02:04;;;;;;;;;;;;;;;;;;5026620;28;19928;-45
2023/03/31 20:04:30;;;;;;;;;;;;;;;;;;5026420;28;20371;-48
2023/03/31 20:06:56;;;;;;;;;;;;;;;;;;5026361;28;20388;-48
2023/03/31 20:09:24;;;;;;;;;;;;;;;;;;5026103;28;19913;-47
2023/03/31 20:11:50;;;;;;;;;;;;;;;;;;5041079;28;19916;-48
2023/03/31 20:14:16;;;;;;;;;;;;;;;;;;5026546;28;20282;-47
2023/03/31 20:16:43;;;;;;;;;;;;;;;;;;5025410;28;19964;-48
2023/03/31 20:19:09;;;;;;;;;;;;;;;;;;5026717;28;19905;-48
2023/03/31 20:21:37;;;;;;;;;;;;;;;;;;5025475;28;20402;-47
2023/03/31 20:24:03;;;;;;;;;;;;;;;;;;5026513;28;19921;-49
2023/03/31 20:26:29;;;;;;;;;;;;;;;;;;5025322;28;20214;-47
2023/03/31 20:28:55;;;;;;;;;;;;;;;;;;5008298;28;20277;-49
2023/03/31 20:31:21;;;;;;;;;;;;;;;;;;5025692;28;20360;-47
2023/03/31 20:33:47;;;;;;;;;;;;;;;;;;5025653;28;19924;-47
2023/03/31 20:36:13;;;;;;;;;;;;;;;;;;5026137;28;20399;-49
2023/03/31 20:38:39;;;;;;;;;;;;;;;;;;5040786;28;19960;-48
2023/03/31 20:41:05;;;;;;;;;;;;;;;;;;5025232;28;20141;-47
2023/03/31 20:43:33;;;;;;;;;;;;;;;;;;5024956;28;19922;-46
2023/03/31 20:46:03;;;;;;;;;;;;;;;;;;5024771;28;20007;-50
2023/03/31 20:48:29;;;;;;;;;;;;;;;;;;5040117;28;19916;-47
2023/03/31 20:50:55;;;;;;;;;;;;;;;;;;5025869;28;19908;-46
2023/03/31 20:53:21;;;;;;;;;;;;;;;;;;5007829;28;19992;-49
2023/03/31 20:55:47;;;;;;;;;;;;;;;;;;5025159;28;20000;-47
2023/03/31 20:58:13;;;;;;;;;;;;;;;;;;5025574;28;19913;-47
2023/03/31 21:00:39;;;;;;;;;;;;;;;;;;5024546;28;19932;-47
2023/03/31 21:03:05;;;;;;;;;;;;;;;;;;5026296;28;19944;-47
2023/03/31 21:05:31;;;;;;;;;;;;;;;;;;5005581;28;19916;-48
2023/03/31 21:07:57;;;;;;;;;;;;;;;;;;5008461;28;19905;-51
2023/03/31 21:10:23;;;;;;;;;;;;;;;;;;5024323;28;20351;-48
2023/03/31 21:12:49;;;;;;;;;;;;;;;;;;5007038;28;20381;-47